Time;durP1;ratioP1;P1;durP2;ratioP2;P2;SDS_P1;SDS_P2;PMS_P1;PMS_P2;Temp;Humidity;BMP_temperature;BMP_pressure;BME280_temperature;BME280_humidity;BME280_pressure;Samples;Min_cycle;Max_cycle;Signal;HPM_P1;HPM_P2
2021/12/03 00:01:28;;;;;;;7.32;2.63;;;1.20;99.90;;;;;;5087588;28;20052;-66
2021/12/03 00:03:54;;;;;;;9.18;2.67;;;1.10;99.90;;;;;;5086726;28;20120;-64
2021/12/03 00:06:20;;;;;;;8.30;2.40;;;1.10;99.90;;;;;;5096585;28;20016;-66
2021/12/03 00:08:46;;;;;;;5.47;2.05;;;1.10;99.90;;;;;;5085102;28;20020;-65
2021/12/03 00:11:13;;;;;;;5.10;2.17;;;1.10;99.90;;;;;;5088321;28;20025;-64
2021/12/03 00:13:40;;;;;;;6.80;2.38;;;1.00;99.90;;;;;;5091962;28;20021;-65
2021/12/03 00:16:06;;;;;;;8.98;2.30;;;1.00;99.90;;;;;;5083981;28;20059;-65
2021/12/03 00:18:32;;;;;;;8.68;2.97;;;1.00;99.90;;;;;;5088016;28;20033;-65
2021/12/03 00:21:02;;;;;;;6.43;2.10;;;1.00;99.90;;;;;;5079096;28;20028;-64
2021/12/03 00:23:29;;;;;;;6.78;2.17;;;1.00;99.90;;;;;;5081560;28;20039;-66
2021/12/03 00:25:58;;;;;;;8.43;2.10;;;1.00;99.90;;;;;;5083083;28;20075;-65
2021/12/03 00:28:24;;;;;;;12.00;2.70;;;1.00;99.90;;;;;;5078873;28;20044;-64
2021/12/03 00:30:52;;;;;;;12.85;2.50;;;1.00;99.90;;;;;;5081565;28;20029;-64
2021/12/03 00:33:18;;;;;;;8.82;2.35;;;1.00;99.90;;;;;;5087102;28;20056;-65
2021/12/03 00:35:44;;;;;;;11.52;2.38;;;1.10;99.90;;;;;;5098303;28;20051;-64
2021/12/03 00:38:10;;;;;;;7.07;2.05;;;1.10;99.90;;;;;;5088409;28;20036;-64
2021/12/03 00:40:38;;;;;;;12.48;2.33;;;1.20;99.90;;;;;;5097533;28;20063;-65
2021/12/03 00:43:06;;;;;;;14.40;2.45;;;1.10;99.90;;;;;;5086148;28;20087;-63
2021/12/03 00:45:32;;;;;;;4.82;2.00;;;1.20;99.90;;;;;;5089256;28;20063;-63
2021/12/03 00:47:59;;;;;;;16.15;2.72;;;1.30;99.90;;;;;;5088827;28;20024;-64
2021/12/03 00:50:27;;;;;;;4.72;1.77;;;1.30;99.90;;;;;;5078360;28;20025;-65
2021/12/03 00:52:54;;;;;;;7.45;2.17;;;1.30;99.90;;;;;;5083447;28;20081;-64
2021/12/03 00:55:22;;;;;;;4.47;2.00;;;1.30;99.90;;;;;;5084955;28;20024;-63
2021/12/03 00:57:48;;;;;;;10.35;2.53;;;1.30;99.90;;;;;;5083099;28;20033;-64
2021/12/03 01:00:23;;;;;;;7.75;2.65;;;1.30;99.90;;;;;;5088766;28;20051;-65
2021/12/03 01:02:50;;;;;;;8.68;2.78;;;1.30;99.90;;;;;;5086951;28;20043;-65
2021/12/03 01:05:16;;;;;;;7.43;2.53;;;1.30;99.90;;;;;;5095268;28;20090;-65
2021/12/03 01:07:41;;;;;;;6.93;1.98;;;1.50;99.90;;;;;;5095915;28;20041;-65
2021/12/03 01:10:08;;;;;;;6.75;2.17;;;1.30;99.90;;;;;;5096236;28;20052;-64
2021/12/03 01:12:34;;;;;;;6.72;2.65;;;1.40;99.90;;;;;;5087605;28;20055;-63
2021/12/03 01:15:00;;;;;;;9.35;2.30;;;1.30;99.90;;;;;;5076682;28;20044;-62
2021/12/03 01:17:26;;;;;;;11.57;2.63;;;1.30;99.90;;;;;;5079539;28;21236;-64
2021/12/03 01:19:51;;;;;;;13.60;2.70;;;1.40;99.90;;;;;;5080112;28;20032;-65
2021/12/03 01:22:17;;;;;;;6.07;2.75;;;1.30;99.90;;;;;;5080011;28;20107;-66
2021/12/03 01:24:43;;;;;;;7.22;2.90;;;1.30;99.90;;;;;;5091952;28;20033;-65
2021/12/03 01:27:09;;;;;;;8.88;2.38;;;1.30;99.90;;;;;;5093393;28;20034;-62
2021/12/03 01:29:35;;;;;;;14.30;2.75;;;1.30;99.90;;;;;;5092219;28;20021;-65
2021/12/03 01:32:00;;;;;;;6.47;2.38;;;1.30;99.90;;;;;;5090274;28;20021;-65
2021/12/03 01:34:26;;;;;;;7.47;2.30;;;1.30;99.90;;;;;;5088159;28;20100;-65
2021/12/03 01:36:52;;;;;;;9.38;3.20;;;1.30;99.90;;;;;;5079893;28;20121;-65
2021/12/03 01:39:18;;;;;;;10.20;2.47;;;1.30;99.90;;;;;;5089408;28;20060;-64
2021/12/03 01:41:44;;;;;;;9.82;2.22;;;1.20;99.90;;;;;;5084053;28;20104;-65
2021/12/03 01:44:10;;;;;;;7.90;2.58;;;1.20;99.90;;;;;;5077851;28;20029;-65
2021/12/03 01:46:35;;;;;;;11.13;3.13;;;1.20;99.90;;;;;;5077515;28;20094;-64
2021/12/03 01:49:01;;;;;;;14.32;3.10;;;1.20;99.90;;;;;;5089327;28;20052;-65
2021/12/03 01:51:27;;;;;;;8.50;2.42;;;1.20;99.90;;;;;;5083479;28;20046;-66
2021/12/03 01:53:54;;;;;;;5.60;2.10;;;1.20;99.90;;;;;;5077321;28;20028;-65
2021/12/03 01:56:21;;;;;;;10.80;2.40;;;1.20;99.90;;;;;;5094933;28;20096;-64
2021/12/03 01:58:50;;;;;;;6.40;2.28;;;1.20;99.90;;;;;;5088465;28;20216;-64
2021/12/03 02:01:17;;;;;;;;;;;1.20;99.90;;;;;;5080512;28;20036;-65
2021/12/03 02:03:46;;;;;;;7.90;2.28;;;1.20;99.90;;;;;;5081296;28;19925;-63
2021/12/03 02:06:13;;;;;;;8.73;2.33;;;1.20;99.90;;;;;;5078902;28;20060;-64
2021/12/03 02:08:40;;;;;;;8.40;1.90;;;1.20;99.90;;;;;;5083301;28;20021;-64
2021/12/03 02:11:07;;;;;;;6.90;2.05;;;1.20;99.90;;;;;;5077290;28;20044;-65
2021/12/03 02:13:34;;;;;;;7.55;2.08;;;1.20;99.90;;;;;;5076389;28;20029;-65
2021/12/03 02:16:00;;;;;;;7.78;2.20;;;1.30;99.90;;;;;;5075683;28;20064;-65
2021/12/03 02:18:26;;;;;;;15.25;2.40;;;1.30;99.90;;;;;;5080678;28;20127;-65
2021/12/03 02:20:54;;;;;;;7.40;2.85;;;1.30;99.90;;;;;;5082337;28;20025;-65
2021/12/03 02:23:22;;;;;;;6.70;2.00;;;1.30;99.90;;;;;;5076956;28;20036;-65
2021/12/03 02:25:48;;;;;;;7.88;1.80;;;1.40;99.90;;;;;;5081568;28;20138;-66
2021/12/03 02:28:17;;;;;;;6.80;2.30;;;1.30;99.90;;;;;;5076729;28;20037;-64
2021/12/03 02:30:43;;;;;;;9.40;2.63;;;1.40;99.90;;;;;;5081478;28;20049;-65
2021/12/03 02:33:10;;;;;;;4.95;2.10;;;1.40;99.90;;;;;;5092063;28;20065;-64
2021/12/03 02:35:39;;;;;;;5.60;1.90;;;1.50;99.90;;;;;;5078467;28;20052;-64
2021/12/03 02:38:09;;;;;;;5.97;2.03;;;1.40;99.90;;;;;;5076619;28;20041;-64
2021/12/03 02:40:36;;;;;;;6.72;2.35;;;1.40;99.90;;;;;;5078089;28;20029;-65
2021/12/03 02:43:03;;;;;;;17.02;2.63;;;1.40;99.90;;;;;;5081038;28;20059;-65
2021/12/03 02:45:29;;;;;;;7.77;2.30;;;1.40;99.90;;;;;;5087015;28;20053;-64
2021/12/03 02:47:56;;;;;;;5.18;1.92;;;1.30;99.90;;;;;;5078870;28;20132;-63
2021/12/03 02:50:22;;;;;;;10.13;2.30;;;1.30;99.90;;;;;;5082360;28;20088;-64
2021/12/03 02:52:49;;;;;;;6.57;2.22;;;1.30;99.90;;;;;;5083674;28;20020;-64
2021/12/03 02:55:15;;;;;;;7.82;2.85;;;1.30;99.90;;;;;;5087301;28;20029;-65
2021/12/03 02:57:41;;;;;;;9.50;2.20;;;1.30;99.90;;;;;;5085706;28;20088;-64
2021/12/03 03:00:13;;;;;;;10.05;2.40;;;1.20;99.90;;;;;;5089106;28;20084;-66
2021/12/03 03:02:40;;;;;;;10.25;2.88;;;1.30;99.90;;;;;;5082319;28;20131;-66
2021/12/03 03:05:07;;;;;;;8.93;2.60;;;1.30;99.90;;;;;;5075278;28;20135;-65
2021/12/03 03:07:33;;;;;;;7.00;2.50;;;1.30;99.90;;;;;;5075750;28;20079;-65
2021/12/03 03:09:58;;;;;;;9.90;2.97;;;1.30;99.90;;;;;;5076303;28;20021;-65
2021/12/03 03:12:24;;;;;;;9.73;3.60;;;1.30;99.90;;;;;;5077510;28;20040;-65
2021/12/03 03:14:58;;;;;;;15.48;3.97;;;1.30;99.90;;;;;;5088194;28;20043;-66
2021/12/03 03:17:27;;;;;;;12.35;4.00;;;1.30;99.90;;;;;;5087004;28;20140;-64
2021/12/03 03:19:54;;;;;;;11.77;4.93;;;1.30;99.90;;;;;;5076015;28;20033;-63
2021/12/03 03:22:21;;;;;;;12.98;6.10;;;1.30;99.90;;;;;;5079874;28;20041;-65
2021/12/03 03:24:47;;;;;;;13.85;5.75;;;1.30;99.90;;;;;;5086833;28;20048;-65
2021/12/03 03:27:14;;;;;;;15.90;7.22;;;1.30;99.90;;;;;;5087894;28;20036;-63
2021/12/03 03:29:42;;;;;;;18.60;7.88;;;1.30;99.90;;;;;;5063282;28;20048;-65
2021/12/03 03:32:08;;;;;;;20.90;8.43;;;1.30;99.90;;;;;;5079674;28;20161;-65
2021/12/03 03:34:34;;;;;;;21.83;8.43;;;1.40;99.90;;;;;;5082265;28;20378;-65
2021/12/03 03:36:59;;;;;;;25.92;9.20;;;1.40;99.90;;;;;;5076947;28;20072;-65
2021/12/03 03:39:25;;;;;;;22.52;9.98;;;1.40;99.90;;;;;;5087541;28;20399;-65
2021/12/03 03:41:51;;;;;;;22.10;10.65;;;1.40;99.90;;;;;;5074775;28;20044;-66
2021/12/03 03:44:17;;;;;;;22.13;11.40;;;1.50;99.90;;;;;;5079672;28;20040;-65
2021/12/03 03:46:45;;;;;;;20.85;12.40;;;1.50;99.90;;;;;;5079098;28;20037;-66
2021/12/03 03:49:10;;;;;;;30.92;15.48;;;1.50;99.90;;;;;;5082693;28;20033;-64
2021/12/03 03:51:37;;;;;;;27.20;14.95;;;1.50;99.90;;;;;;5083517;28;20044;-64
2021/12/03 03:54:03;;;;;;;34.15;18.33;;;1.50;99.90;;;;;;5076112;28;20056;-64
2021/12/03 03:56:30;;;;;;;31.15;17.45;;;1.50;99.90;;;;;;5075762;28;20025;-65
2021/12/03 03:58:55;;;;;;;31.20;17.90;;;1.50;99.90;;;;;;5075766;28;20025;-65
2021/12/03 04:01:21;;;;;;;30.83;19.35;;;1.50;99.90;;;;;;5079456;28;20032;-62
2021/12/03 04:03:47;;;;;;;36.80;20.48;;;1.50;99.90;;;;;;5084849;28;20088;-64
2021/12/03 04:06:15;;;;;;;36.33;21.95;;;1.50;99.90;;;;;;5094218;28;20081;-65
2021/12/03 04:08:42;;;;;;;41.42;22.20;;;1.50;99.90;;;;;;5083492;28;20044;-64
2021/12/03 04:11:08;;;;;;;35.38;21.40;;;1.50;99.90;;;;;;5085261;28;20044;-65
2021/12/03 04:13:34;;;;;;;37.70;23.40;;;1.50;99.90;;;;;;5085329;28;20020;-65
2021/12/03 04:16:00;;;;;;;44.53;23.30;;;1.50;99.90;;;;;;5088138;28;20100;-65
2021/12/03 04:18:26;;;;;;;41.63;24.08;;;1.50;99.90;;;;;;5068180;28;20100;-64
2021/12/03 04:20:51;;;;;;;40.22;24.40;;;1.50;99.90;;;;;;5077977;28;20012;-65
2021/12/03 04:23:19;;;;;;;39.53;23.85;;;1.50;99.90;;;;;;5082333;28;20188;-65
2021/12/03 04:25:47;;;;;;;39.47;24.00;;;1.50;99.90;;;;;;5075536;28;20037;-66
2021/12/03 04:28:12;;;;;;;36.95;23.30;;;1.50;99.90;;;;;;5074975;28;20041;-65
2021/12/03 04:30:38;;;;;;;38.42;23.27;;;1.50;99.90;;;;;;5090392;28;20048;-66
2021/12/03 04:33:04;;;;;;;42.97;23.45;;;1.50;99.90;;;;;;5084109;28;20084;-64
2021/12/03 04:35:30;;;;;;;43.45;24.17;;;1.50;99.90;;;;;;5081634;28;20112;-64
2021/12/03 04:37:57;;;;;;;39.85;22.83;;;1.50;99.90;;;;;;5078254;28;20033;-65
2021/12/03 04:40:23;;;;;;;37.38;24.35;;;1.50;99.90;;;;;;5081927;28;20056;-63
2021/12/03 04:42:49;;;;;;;39.35;22.70;;;1.00;99.90;;;;;;5095919;28;20040;-65
2021/12/03 04:45:19;;;;;;;33.63;22.00;;;1.50;99.90;;;;;;5085440;28;20032;-66
2021/12/03 04:47:46;;;;;;;36.10;22.27;;;1.50;99.90;;;;;;5091552;28;20024;-64
2021/12/03 04:50:14;;;;;;;38.00;19.95;;;1.50;99.90;;;;;;5085866;28;20041;-66
2021/12/03 04:52:40;;;;;;;37.85;22.00;;;1.50;99.90;;;;;;5079534;28;20052;-66
2021/12/03 04:55:07;;;;;;;34.10;19.42;;;1.50;99.90;;;;;;5078704;28;20041;-64
2021/12/03 04:57:33;;;;;;;38.90;21.85;;;1.50;99.90;;;;;;5087807;28;20027;-66
2021/12/03 04:59:59;;;;;;;34.88;21.88;;;1.50;99.90;;;;;;5090282;28;20053;-63
2021/12/03 05:02:25;;;;;;;31.67;20.27;;;1.50;99.90;;;;;;5077400;28;20170;-65
2021/12/03 05:04:53;;;;;;;34.10;20.88;;;1.50;99.90;;;;;;5089921;28;20024;-65
2021/12/03 05:07:31;;;;;;;44.42;21.80;;;1.50;99.90;;;;;;5087086;28;20041;-65
2021/12/03 05:09:57;;;;;;;33.83;20.05;;;1.40;99.90;;;;;;5081451;28;20048;-63
2021/12/03 05:12:24;;;;;;;39.65;19.95;;;1.40;99.90;;;;;;5084462;28;20029;-64
2021/12/03 05:14:50;;;;;;;31.98;19.85;;;1.40;99.90;;;;;;5077358;28;20868;-64
2021/12/03 05:17:15;;;;;;;37.90;20.60;;;1.40;99.90;;;;;;5088146;28;20286;-64
2021/12/03 05:19:41;;;;;;;34.47;19.65;;;1.30;99.90;;;;;;5077397;28;20053;-65
2021/12/03 05:22:07;;;;;;;41.17;22.02;;;1.40;99.90;;;;;;5086114;28;20120;-65
2021/12/03 05:24:32;;;;;;;34.85;18.70;;;1.30;99.90;;;;;;5089521;28;20017;-65
2021/12/03 05:26:58;;;;;;;29.63;18.83;;;1.30;99.90;;;;;;5087995;28;20049;-65
2021/12/03 05:29:25;;;;;;;33.65;20.05;;;1.40;99.90;;;;;;5081291;28;20054;-64
2021/12/03 05:31:50;;;;;;;28.92;18.63;;;1.30;99.90;;;;;;5076940;28;20017;-65
2021/12/03 05:34:16;;;;;;;33.38;19.95;;;1.40;99.90;;;;;;5087926;28;20059;-64
2021/12/03 05:36:46;;;;;;;31.70;19.20;;;1.40;99.90;;;;;;5078399;28;20040;-65
2021/12/03 05:39:11;;;;;;;33.90;18.13;;;1.40;99.90;;;;;;5081473;28;20033;-63
2021/12/03 05:41:37;;;;;;;30.98;17.45;;;1.40;99.90;;;;;;5078830;28;20101;-66
2021/12/03 05:44:03;;;;;;;29.95;18.05;;;1.40;99.90;;;;;;5081364;28;20100;-66
2021/12/03 05:46:29;;;;;;;31.25;18.73;;;1.40;99.90;;;;;;5089950;28;20080;-67
2021/12/03 05:48:55;;;;;;;26.65;17.75;;;1.40;99.90;;;;;;5089681;28;20044;-66
2021/12/03 05:51:21;;;;;;;26.33;17.48;;;1.40;99.90;;;;;;5085453;28;20021;-64
2021/12/03 05:53:47;;;;;;;31.52;17.65;;;1.40;99.90;;;;;;5091587;28;20043;-62
2021/12/03 05:56:12;;;;;;;31.40;17.40;;;1.40;99.90;;;;;;5092317;28;20087;-64
2021/12/03 05:58:38;;;;;;;32.35;17.17;;;1.40;99.90;;;;;;5079376;28;20032;-63
2021/12/03 06:01:04;;;;;;;27.33;17.30;;;1.40;99.90;;;;;;5083321;28;20025;-62
2021/12/03 06:03:29;;;;;;;28.13;17.42;;;1.40;99.90;;;;;;5084052;28;20033;-62
2021/12/03 06:05:55;;;;;;;29.13;18.23;;;1.30;99.90;;;;;;5088302;28;20033;-64
2021/12/03 06:08:21;;;;;;;28.35;17.15;;;1.40;99.90;;;;;;5076672;28;20061;-64
2021/12/03 06:10:47;;;;;;;31.25;18.90;;;1.30;99.90;;;;;;5090495;28;20155;-63
2021/12/03 06:13:12;;;;;;;30.13;17.85;;;1.40;99.90;;;;;;5078572;28;20098;-62
2021/12/03 06:15:38;;;;;;;24.83;17.85;;;1.30;99.90;;;;;;5076722;28;20112;-62
2021/12/03 06:18:04;;;;;;;30.95;17.15;;;1.40;99.90;;;;;;5083869;28;20024;-63
2021/12/03 06:20:30;;;;;;;34.70;19.50;;;1.40;99.90;;;;;;5082479;28;20048;-62
2021/12/03 06:22:55;;;;;;;33.92;18.50;;;1.40;99.90;;;;;;5093257;28;20094;-64
2021/12/03 06:25:22;;;;;;;26.75;17.75;;;1.40;99.90;;;;;;5080957;28;20016;-64
2021/12/03 06:27:48;;;;;;;33.88;20.38;;;1.40;99.90;;;;;;5089706;28;20029;-66
2021/12/03 06:30:18;;;;;;;30.42;19.48;;;1.40;99.90;;;;;;5088181;28;20021;-65
2021/12/03 06:32:44;;;;;;;30.23;19.45;;;0.80;99.90;;;;;;5090507;28;20051;-64
2021/12/03 06:35:12;;;;;;;36.85;20.55;;;1.50;99.90;;;;;;5090397;28;20043;-65
2021/12/03 06:37:38;;;;;;;34.63;20.33;;;1.50;99.90;;;;;;5078013;28;20055;-63
2021/12/03 06:40:09;;;;;;;28.65;19.88;;;1.60;99.90;;;;;;5083484;28;20036;-63
2021/12/03 06:42:34;;;;;;;32.35;20.67;;;1.60;99.90;;;;;;5080970;28;20045;-65
2021/12/03 06:45:03;;;;;;;28.02;19.52;;;1.70;99.90;;;;;;5081972;28;20033;-64
2021/12/03 06:47:29;;;;;;;32.15;19.83;;;1.70;99.90;;;;;;5076602;28;20033;-64
2021/12/03 06:49:54;;;;;;;31.67;20.50;;;1.80;99.90;;;;;;5075811;28;20111;-64
2021/12/03 06:52:20;;;;;;;35.53;20.20;;;1.80;99.90;;;;;;5086688;28;20021;-66
2021/12/03 06:54:54;;;;;;;35.05;20.48;;;1.80;99.90;;;;;;5079591;28;20060;-65
2021/12/03 06:57:20;;;;;;;36.63;20.38;;;1.90;99.90;;;;;;5076627;28;20040;-65
2021/12/03 06:59:45;;;;;;;34.05;20.17;;;1.90;99.90;;;;;;5083335;28;20029;-64
2021/12/03 07:02:12;;;;;;;40.17;21.73;;;1.90;99.90;;;;;;5080064;28;20029;-65
2021/12/03 07:04:39;;;;;;;36.17;19.98;;;1.90;99.90;;;;;;5084903;28;20097;-65
2021/12/03 07:07:05;;;;;;;36.47;19.83;;;1.90;99.90;;;;;;5087927;28;20048;-64
2021/12/03 07:09:30;;;;;;;31.05;20.02;;;2.00;99.90;;;;;;5084957;28;20051;-65
2021/12/03 07:11:56;;;;;;;33.58;17.17;;;2.00;99.90;;;;;;5071397;28;20060;-66
2021/12/03 07:14:21;;;;;;;23.92;16.92;;;2.00;99.90;;;;;;5079636;28;20020;-67
2021/12/03 07:16:47;;;;;;;29.60;16.65;;;2.00;99.90;;;;;;5081229;28;20028;-65
2021/12/03 07:19:13;;;;;;;33.80;17.05;;;2.00;99.90;;;;;;5085850;28;20025;-65
2021/12/03 07:21:40;;;;;;;26.27;16.40;;;2.00;99.90;;;;;;5087967;28;20036;-64
2021/12/03 07:24:06;;;;;;;28.70;16.70;;;2.00;99.90;;;;;;5086322;28;20184;-63
2021/12/03 07:26:32;;;;;;;33.83;16.77;;;2.00;99.90;;;;;;5076402;28;20072;-65
2021/12/03 07:28:58;;;;;;;34.38;17.52;;;2.00;99.90;;;;;;5095049;28;20032;-65
2021/12/03 07:31:23;;;;;;;27.85;15.52;;;2.10;99.90;;;;;;5095827;28;20032;-65
2021/12/03 07:33:51;;;;;;;38.20;15.93;;;2.00;99.90;;;;;;5082920;28;20021;-65
2021/12/03 07:36:16;;;;;;;33.08;16.83;;;2.10;99.90;;;;;;5077260;28;20044;-65
2021/12/03 07:38:42;;;;;;;37.45;16.27;;;2.10;99.90;;;;;;5086508;28;20048;-66
2021/12/03 07:41:08;;;;;;;30.27;13.82;;;2.00;99.90;;;;;;5082652;28;20032;-65
2021/12/03 07:43:33;;;;;;;31.13;14.50;;;2.10;99.90;;;;;;5092761;28;20055;-65
2021/12/03 07:46:00;;;;;;;20.35;12.32;;;2.10;99.90;;;;;;5075809;28;20021;-66
2021/12/03 07:48:25;;;;;;;24.52;11.30;;;2.10;99.90;;;;;;5079247;28;20172;-65
2021/12/03 07:50:53;;;;;;;23.10;11.77;;;2.10;99.90;;;;;;5079229;28;20033;-64
2021/12/03 07:53:19;;;;;;;25.48;12.38;;;2.10;99.90;;;;;;5082860;28;20040;-64
2021/12/03 07:55:49;;;;;;;27.20;11.55;;;2.10;99.90;;;;;;5078156;28;20071;-62
2021/12/03 07:58:16;;;;;;;23.15;11.43;;;2.10;99.90;;;;;;5081119;28;20088;-65
2021/12/03 08:00:44;;;;;;;19.13;10.48;;;2.10;99.90;;;;;;5081378;28;20020;-65
2021/12/03 08:03:12;;;;;;;16.30;10.30;;;2.20;99.90;;;;;;5078809;28;20033;-65
2021/12/03 08:05:38;;;;;;;18.85;9.55;;;2.20;99.90;;;;;;5076009;28;20048;-65
2021/12/03 08:08:05;;;;;;;18.35;8.98;;;2.20;99.90;;;;;;5081442;28;20045;-66
2021/12/03 08:10:34;;;;;;;18.52;9.10;;;2.20;99.90;;;;;;5090456;28;20032;-65
2021/12/03 08:13:01;;;;;;;19.08;8.77;;;2.30;99.90;;;;;;5079565;28;20059;-63
2021/12/03 08:15:26;;;;;;;19.95;8.80;;;2.20;99.90;;;;;;5079976;28;20079;-65
2021/12/03 08:17:52;;;;;;;22.13;9.40;;;2.30;99.90;;;;;;5066549;28;20025;-65
2021/12/03 08:20:18;;;;;;;16.05;9.18;;;2.30;99.90;;;;;;5079193;28;20028;-65
2021/12/03 08:22:44;;;;;;;14.45;7.63;;;2.30;99.90;;;;;;5078965;28;20037;-64
2021/12/03 08:25:11;;;;;;;17.10;8.40;;;2.30;99.90;;;;;;5080300;28;20081;-65
2021/12/03 08:27:36;;;;;;;21.67;8.38;;;2.40;99.90;;;;;;5092001;28;20029;-63
2021/12/03 08:30:04;;;;;;;17.08;7.22;;;2.40;99.90;;;;;;5096967;28;20070;-62
2021/12/03 08:32:30;;;;;;;17.45;7.88;;;2.50;99.90;;;;;;5078650;28;20044;-64
2021/12/03 08:34:56;;;;;;;17.33;6.57;;;2.50;99.90;;;;;;5078585;28;20017;-65
2021/12/03 08:37:21;;;;;;;18.60;6.20;;;2.50;99.90;;;;;;5087936;28;20051;-64
2021/12/03 08:39:47;;;;;;;10.48;6.30;;;2.60;99.90;;;;;;5087386;28;20085;-65
2021/12/03 08:42:13;;;;;;;17.90;7.15;;;2.60;99.90;;;;;;5089039;28;20152;-65
2021/12/03 08:44:40;;;;;;;27.08;7.20;;;2.70;99.90;;;;;;5081841;28;20028;-65
2021/12/03 08:47:07;;;;;;;17.50;6.93;;;2.70;99.90;;;;;;5084477;28;20059;-66
2021/12/03 08:54:53;;;;;;;18.33;7.28;;;2.90;99.90;;;;;;5075658;28;20056;-64
2021/12/03 08:57:31;;;;;;;17.60;7.80;;;2.90;99.90;;;;;;5086439;28;20051;-63
2021/12/03 08:59:59;;;;;;;21.38;8.60;;;2.90;99.90;;;;;;5096505;28;20033;-66
2021/12/03 09:02:25;;;;;;;16.95;7.72;;;2.90;99.90;;;;;;5088244;28;20025;-62
2021/12/03 09:04:51;;;;;;;20.20;8.10;;;2.90;99.90;;;;;;5082569;28;20033;-65
2021/12/03 09:07:17;;;;;;;18.83;7.55;;;3.00;99.90;;;;;;5077602;28;20041;-64
2021/12/03 09:09:43;;;;;;;16.63;7.25;;;3.00;99.90;;;;;;5078134;28;20051;-63
2021/12/03 09:12:08;;;;;;;22.45;8.30;;;3.00;99.90;;;;;;5084787;28;20016;-65
2021/12/03 09:20:04;;;;;;;20.40;8.60;;;3.10;99.90;;;;;;5058540;28;19909;-64
2021/12/03 09:25:03;;;;;;;25.20;10.20;;;3.10;99.90;;;;;;5098107;28;20032;-65
2021/12/03 09:27:29;;;;;;;27.63;11.38;;;3.10;99.90;;;;;;5088171;28;20043;-66
2021/12/03 09:29:55;;;;;;;24.58;10.65;;;3.10;99.90;;;;;;5077733;28;20475;-63
2021/12/03 09:32:24;;;;;;;24.95;11.55;;;3.10;99.90;;;;;;5085683;28;20043;-65
2021/12/03 09:34:50;;;;;;;21.67;11.40;;;3.10;99.90;;;;;;5094579;28;20096;-64
2021/12/03 09:37:16;;;;;;;19.98;11.68;;;3.10;99.90;;;;;;5096476;28;20035;-64
2021/12/03 09:39:44;;;;;;;28.75;13.05;;;3.10;99.90;;;;;;5086160;28;20021;-64
2021/12/03 09:42:11;;;;;;;24.73;12.57;;;3.10;99.90;;;;;;5089734;28;20033;-67
2021/12/03 09:44:41;;;;;;;27.70;12.80;;;3.20;99.90;;;;;;5085614;28;20036;-65
2021/12/03 09:47:07;;;;;;;29.88;14.63;;;3.20;99.90;;;;;;5077414;28;20062;-62
2021/12/03 09:49:34;;;;;;;33.58;14.02;;;3.30;99.90;;;;;;5081887;28;20084;-63
2021/12/03 09:57:37;;;;;;;30.67;13.82;;;3.30;99.90;;;;;;5035685;28;20030;-64
2021/12/03 10:03:38;;;;;;;29.98;14.82;;;3.40;99.90;;;;;;5056401;28;20041;-62
2021/12/03 10:09:32;;;;;;;33.08;13.55;;;3.50;99.90;;;;;;5077741;28;20049;-63
2021/12/03 10:14:02;;;;;;;33.25;15.40;;;3.50;99.90;;;;;;5076105;28;20048;-65
2021/12/03 10:16:52;;;;;;;27.63;13.90;;;3.50;99.90;;;;;;5091635;28;20044;-63
2021/12/03 10:19:36;;;;;;;27.50;13.15;;;3.60;99.90;;;;;;5076924;28;20032;-62
2021/12/03 10:27:57;;;;;;;23.38;12.10;;;3.70;99.90;;;;;;5086091;28;20060;-65
2021/12/03 10:52:10;;;;;;;24.75;11.07;;;3.80;99.90;;;;;;5082403;28;20060;-62
2021/12/03 11:03:34;;;;;;;20.42;9.27;;;3.80;99.90;;;;;;5089874;28;20033;-65
2021/12/03 11:12:11;;;;;;;21.48;8.10;;;3.80;99.90;;;;;;5078918;28;20057;-65
2021/12/03 11:33:58;;;;;;;18.05;7.00;;;3.90;99.90;;;;;;5071157;28;20056;-65
2021/12/03 11:39:02;;;;;;;14.88;6.50;;;3.90;99.90;;;;;;5071393;28;20037;-66
2021/12/03 12:19:19;;;;;;;17.50;6.53;;;3.50;99.90;;;;;;5084904;28;20048;-65
2021/12/03 12:56:14;;;;;;;15.48;5.55;;;3.50;99.90;;;;;;5103153;28;20102;-63
2021/12/03 13:04:42;;;;;;;20.77;8.27;;;3.40;99.90;;;;;;5086721;28;20047;-62
2021/12/03 13:09:23;;;;;;;19.30;7.85;;;3.40;99.90;;;;;;5095446;28;20068;-64
2021/12/03 13:14:54;;;;;;;16.50;7.97;;;3.50;99.90;;;;;;5084987;28;20129;-65
2021/12/03 14:04:09;;;;;;;13.75;6.60;;;3.70;99.90;;;;;;5085681;28;20048;-66
2021/12/03 14:12:31;;;;;;;14.98;6.00;;;3.70;99.90;;;;;;5084614;28;20071;-66
2021/12/03 14:44:40;;;;;;;14.30;5.68;;;3.90;99.90;;;;;;5078653;28;20045;-62
2021/12/03 14:52:42;;;;;;;10.50;5.30;;;3.90;99.90;;;;;;5085473;28;20048;-65
2021/12/03 14:55:09;;;;;;;13.95;6.07;;;4.00;99.90;;;;;;5067312;28;20060;-63
2021/12/03 14:57:52;;;;;;;12.65;5.45;;;4.00;99.90;;;;;;5067551;28;20033;-62
2021/12/03 15:00:26;;;;;;;14.02;5.82;;;4.00;99.90;;;;;;5066981;28;20044;-64
2021/12/03 15:08:05;;;;;;;12.00;5.18;;;4.00;99.90;;;;;;5074800;28;20431;-63
2021/12/03 15:13:27;;;;;;;11.85;6.00;;;4.00;99.90;;;;;;5077164;28;20056;-64
2021/12/03 15:31:34;;;;;;;13.60;7.38;;;4.00;99.90;;;;;;5077831;28;20052;-62
2021/12/03 15:34:10;;;;;;;14.88;7.68;;;4.00;99.90;;;;;;5077688;28;20104;-65
2021/12/03 15:39:43;;;;;;;17.38;9.02;;;4.00;99.90;;;;;;5078245;28;20040;-64
2021/12/03 16:06:43;;;;;;;17.33;12.18;;;4.00;99.90;;;;;;5081110;28;20033;-66
2021/12/03 16:09:10;;;;;;;16.77;10.88;;;4.00;99.90;;;;;;5076352;28;20505;-65
2021/12/03 16:11:42;;;;;;;19.92;13.05;;;4.00;99.90;;;;;;5080164;28;20100;-64
2021/12/03 16:20:06;;;;;;;21.20;14.20;;;4.00;99.90;;;;;;5075705;28;20049;-63
2021/12/03 16:22:45;;;;;;;22.85;14.52;;;4.00;99.90;;;;;;5072148;28;20705;-65
2021/12/03 16:52:46;;;;;;;21.75;16.05;;;4.10;99.90;;;;;;5053194;28;20059;-67
2021/12/03 16:55:13;;;;;;;25.90;17.10;;;4.10;99.90;;;;;;5077206;28;20060;-64
2021/12/03 16:57:39;;;;;;;23.70;17.92;;;4.20;99.90;;;;;;5084014;28;20037;-63
2021/12/03 17:00:57;;;;;;;26.63;18.00;;;4.10;99.90;;;;;;5078113;28;20033;-65
2021/12/03 17:03:20;;;;;;;21.67;17.67;;;4.10;99.90;;;;;;5074206;28;20032;-63
2021/12/03 17:22:06;;;;;;;22.52;17.65;;;4.20;99.90;;;;;;5079153;28;20035;-64
2021/12/03 17:46:29;;;;;;;25.88;18.63;;;4.20;99.90;;;;;;5089474;28;20052;-66
2021/12/03 17:49:03;;;;;;;27.38;18.80;;;4.20;99.90;;;;;;5086697;28;20025;-65
2021/12/03 17:56:49;;;;;;;26.25;19.58;;;4.20;99.90;;;;;;5084928;28;20048;-65
2021/12/03 17:59:30;;;;;;;31.17;20.88;;;4.20;99.90;;;;;;5078747;28;20461;-65
2021/12/03 18:02:03;;;;;;;28.42;19.70;;;4.20;99.90;;;;;;5076398;28;20073;-64
2021/12/03 18:04:44;;;;;;;30.58;20.30;;;4.20;99.90;;;;;;5082477;28;20048;-63
2021/12/03 18:07:26;;;;;;;28.48;18.70;;;4.20;99.90;;;;;;5082221;28;20045;-64
2021/12/03 18:57:58;;;;;;;;;;;4.30;99.90;;;;;;5050435;28;20053;-67
2021/12/03 19:00:27;;;;;;;38.95;23.08;;;4.30;99.90;;;;;;5050556;28;19986;-67
2021/12/03 19:02:56;;;;;;;42.15;24.80;;;4.30;99.90;;;;;;5052932;28;20110;-68
2021/12/03 19:05:35;;;;;;;41.55;24.73;;;4.30;99.90;;;;;;5057548;28;20045;-68
2021/12/03 19:08:08;;;;;;;37.53;22.88;;;4.40;99.90;;;;;;5048066;28;20490;-68
2021/12/03 19:10:40;;;;;;;42.67;25.17;;;4.40;99.90;;;;;;5054410;28;20053;-70
2021/12/03 19:13:10;;;;;;;40.97;23.85;;;4.40;99.90;;;;;;5036367;28;20046;-69
2021/12/03 19:15:36;;;;;;;41.50;24.17;;;4.40;99.90;;;;;;5057332;28;20414;-69
2021/12/03 19:18:03;;;;;;;44.53;25.63;;;4.30;99.90;;;;;;5060660;28;20476;-68
2021/12/03 19:20:35;;;;;;;42.42;24.58;;;4.40;99.90;;;;;;5058568;28;20032;-69
2021/12/03 19:23:01;;;;;;;42.22;25.67;;;4.40;99.90;;;;;;5054280;28;20048;-67
2021/12/03 19:25:27;;;;;;;38.50;23.45;;;4.40;99.90;;;;;;5059311;28;20045;-68
2021/12/03 19:27:53;;;;;;;47.03;24.83;;;4.40;99.90;;;;;;5058516;28;20554;-68
2021/12/03 19:30:18;;;;;;;42.85;25.05;;;4.40;99.90;;;;;;5055408;28;20055;-68
2021/12/03 19:32:44;;;;;;;44.33;26.15;;;4.40;99.90;;;;;;5050704;28;20044;-67
2021/12/03 19:35:10;;;;;;;46.78;26.38;;;4.40;99.90;;;;;;5048896;28;20080;-68
2021/12/03 19:37:37;;;;;;;49.05;27.75;;;4.40;99.90;;;;;;5054401;28;20079;-66
2021/12/03 19:40:09;;;;;;;46.20;27.30;;;4.40;99.90;;;;;;5057363;28;20537;-67
2021/12/03 19:45:13;;;;;;;48.97;27.92;;;4.40;99.90;;;;;;5056304;28;20394;-67
2021/12/03 19:48:01;;;;;;;45.75;27.92;;;4.50;99.90;;;;;;5054645;28;20061;-67
2021/12/03 19:55:24;;;;;;;53.15;29.92;;;4.50;99.90;;;;;;5058657;28;20071;-67
2021/12/03 19:57:50;;;;;;;52.13;30.33;;;4.40;99.90;;;;;;5054784;28;20036;-67
2021/12/03 20:00:24;;;;;;;55.35;29.55;;;4.50;99.90;;;;;;5058673;28;20063;-67
2021/12/03 20:02:50;;;;;;;50.90;29.77;;;4.50;99.90;;;;;;5060951;28;20040;-68
2021/12/03 20:05:16;;;;;;;54.58;32.38;;;4.60;99.90;;;;;;5061799;28;20495;-68
2021/12/03 20:07:43;;;;;;;59.75;31.40;;;4.40;99.90;;;;;;5061972;28;20546;-68
2021/12/03 20:10:16;;;;;;;55.55;30.65;;;4.50;99.90;;;;;;5064222;28;20572;-66
2021/12/03 20:12:41;;;;;;;55.95;31.75;;;4.50;99.90;;;;;;5064716;28;20063;-66